Time;durP1;ratioP1;P1;durP2;ratioP2;P2;SDS_P1;SDS_P2;PMS_P1;PMS_P2;Temp;Humidity;BMP_temperature;BMP_pressure;BME280_temperature;BME280_humidity;BME280_pressure;Samples;Min_cycle;Max_cycle;Signal;HPM_P1;HPM_P2
2021/09/06 00:00:52;;;;;;;9.90;8.90;;;24.10;59.60;;;;;;5097080;28;20299;-72
2021/09/06 00:03:22;;;;;;;9.33;8.43;;;24.10;59.60;;;;;;5084222;28;20193;-72
2021/09/06 00:05:52;;;;;;;10.00;9.07;;;24.10;59.60;;;;;;5075496;28;20570;-72
2021/09/06 00:08:24;;;;;;;9.10;8.27;;;24.10;59.60;;;;;;5105941;28;20193;-72
2021/09/06 00:11:09;;;;;;;8.90;8.07;;;24.10;59.60;;;;;;5097710;28;20222;-72
2021/09/06 00:13:42;;;;;;;9.23;8.43;;;24.10;59.50;;;;;;5059176;28;20308;-72
2021/09/06 00:16:14;;;;;;;9.50;8.50;;;24.10;59.60;;;;;;5095238;28;20675;-72
2021/09/06 00:18:44;;;;;;;9.20;8.33;;;24.00;59.50;;;;;;5103859;28;20192;-72
2021/09/06 00:21:11;;;;;;;9.33;8.47;;;24.00;59.50;;;;;;5101887;28;20199;-72
2021/09/06 00:23:41;;;;;;;10.83;8.63;;;24.00;59.50;;;;;;5097157;28;20288;-72
2021/09/06 00:26:15;;;;;;;9.57;8.57;;;24.00;59.50;;;;;;5070782;28;20618;-72
2021/09/06 00:28:47;;;;;;;9.30;8.40;;;24.00;60.10;;;;;;5099118;28;20207;-71
2021/09/06 00:31:19;;;;;;;9.53;8.57;;;24.00;59.40;;;;;;5091955;28;20282;-71
2021/09/06 00:33:49;;;;;;;8.93;8.03;;;24.00;59.40;;;;;;5058971;28;20201;-71
2021/09/06 00:36:20;;;;;;;9.70;8.70;;;24.00;59.40;;;;;;5102097;28;20798;-72
2021/09/06 00:38:48;;;;;;;8.73;7.83;;;24.00;59.40;;;;;;5092759;28;20193;-71
2021/09/06 00:41:20;;;;;;;8.53;7.77;;;24.00;59.40;;;;;;5105362;28;20197;-72
2021/09/06 00:43:47;;;;;;;8.80;7.90;;;24.00;59.30;;;;;;5092321;28;20189;-72
2021/09/06 00:46:16;;;;;;;8.90;8.00;;;24.00;59.30;;;;;;5062393;28;20205;-72
2021/09/06 00:48:47;;;;;;;8.20;7.50;;;24.00;59.30;;;;;;5092628;28;20595;-72
2021/09/06 00:51:17;;;;;;;9.03;8.23;;;23.90;59.20;;;;;;5101426;28;20553;-72
2021/09/06 00:53:47;;;;;;;8.93;8.03;;;23.90;59.20;;;;;;5093662;28;20196;-72
2021/09/06 00:56:23;;;;;;;9.23;8.33;;;23.90;59.90;;;;;;5082791;28;20189;-72
2021/09/06 00:58:53;;;;;;;8.60;7.80;;;23.90;59.20;;;;;;5094934;28;20184;-72
2021/09/06 01:01:25;;;;;;;9.70;8.30;;;23.90;59.20;;;;;;5097024;28;20250;-72
2021/09/06 01:04:00;;;;;;;8.27;7.57;;;23.90;59.20;;;;;;5103638;28;20188;-72
2021/09/06 01:06:32;;;;;;;9.20;8.30;;;23.90;59.20;;;;;;5096204;28;20197;-72
2021/09/06 01:09:04;;;;;;;9.10;8.20;;;23.90;59.20;;;;;;5100455;28;20745;-72
2021/09/06 01:11:35;;;;;;;8.87;8.03;;;23.90;59.20;;;;;;5095090;28;20575;-72
2021/09/06 01:14:05;;;;;;;8.67;7.87;;;23.90;59.20;;;;;;5100121;28;20716;-72
2021/09/06 01:16:35;;;;;;;10.23;7.83;;;23.90;59.20;;;;;;5098456;28;20203;-72
2021/09/06 01:19:05;;;;;;;8.73;7.93;;;23.80;59.10;;;;;;5105558;28;20228;-72
2021/09/06 01:21:36;;;;;;;8.73;7.80;;;23.80;59.20;;;;;;5101395;28;20200;-72
2021/09/06 01:24:06;;;;;;;9.17;8.27;;;23.90;59.20;;;;;;5104204;28;20207;-72
2021/09/06 01:26:36;;;;;;;8.43;7.73;;;23.80;59.10;;;;;;5093606;28;20285;-72
2021/09/06 01:29:11;;;;;;;8.70;7.80;;;23.80;59.10;;;;;;5084573;28;20208;-72
2021/09/06 01:31:42;;;;;;;8.73;7.93;;;23.80;59.10;;;;;;5095378;28;20195;-72
2021/09/06 01:34:10;;;;;;;8.53;7.73;;;23.80;59.10;;;;;;5093172;28;20270;-72
2021/09/06 01:36:42;;;;;;;8.57;7.77;;;23.80;59.00;;;;;;5060725;28;20209;-72
2021/09/06 01:39:13;;;;;;;8.53;7.63;;;23.80;59.10;;;;;;5080652;28;20216;-72
2021/09/06 01:41:46;;;;;;;8.20;7.50;;;23.80;59.00;;;;;;5084675;28;20204;-72
2021/09/06 01:44:15;;;;;;;9.93;7.67;;;23.80;59.00;;;;;;5096531;28;20228;-72
2021/09/06 01:46:47;;;;;;;8.87;8.07;;;23.80;59.10;;;;;;5090101;28;20205;-72
2021/09/06 01:49:22;;;;;;;8.53;7.83;;;23.80;59.00;;;;;;5079833;28;20185;-72
2021/09/06 01:51:56;;;;;;;9.20;7.90;;;23.80;59.00;;;;;;5108026;28;20197;-72
2021/09/06 01:54:27;;;;;;;8.47;7.60;;;23.80;59.00;;;;;;5113667;28;20216;-72
2021/09/06 01:56:58;;;;;;;7.90;7.10;;;23.70;59.60;;;;;;5107789;28;20244;-72
2021/09/06 01:59:27;;;;;;;7.60;6.90;;;23.70;59.00;;;;;;5103145;28;20519;-72
2021/09/06 02:01:57;;;;;;;9.00;7.70;;;23.70;59.00;;;;;;5108638;28;20210;-72
2021/09/06 02:04:28;;;;;;;8.03;7.27;;;23.70;59.00;;;;;;5105573;28;20602;-72
2021/09/06 02:06:57;;;;;;;8.53;7.73;;;23.70;58.90;;;;;;5086424;28;20250;-72
2021/09/06 02:09:27;;;;;;;7.70;6.90;;;23.70;58.90;;;;;;5108124;28;20205;-72
2021/09/06 02:11:58;;;;;;;8.03;7.27;;;23.70;58.90;;;;;;5092209;28;20200;-72
2021/09/06 02:14:27;;;;;;;8.37;7.57;;;23.70;58.90;;;;;;5112548;28;20644;-72
2021/09/06 02:17:01;;;;;;;7.73;7.03;;;23.70;59.00;;;;;;5111104;27;20194;-72
2021/09/06 02:19:44;;;;;;;8.63;7.83;;;23.70;58.90;;;;;;5108446;28;20278;-72
2021/09/06 02:22:11;;;;;;;8.67;7.57;;;23.70;58.90;;;;;;5108727;28;20227;-72
2021/09/06 02:24:41;;;;;;;8.43;7.63;;;23.70;58.90;;;;;;5106199;28;20209;-72
2021/09/06 02:27:09;;;;;;;8.87;8.00;;;23.60;58.90;;;;;;5105384;27;20262;-72
2021/09/06 02:29:37;;;;;;;8.30;7.50;;;23.70;58.90;;;;;;5109094;27;20557;-72
2021/09/06 02:32:08;;;;;;;8.23;7.43;;;23.60;58.90;;;;;;5094758;28;20200;-72
2021/09/06 02:34:36;;;;;;;7.83;7.13;;;23.60;58.90;;;;;;5087073;28;20212;-72
2021/09/06 02:37:19;;;;;;;7.90;7.20;;;23.70;58.90;;;;;;5098972;28;20272;-72
2021/09/06 02:39:49;;;;;;;7.50;6.70;;;23.60;58.80;;;;;;5087370;28;20219;-72
2021/09/06 02:42:18;;;;;;;8.20;7.40;;;23.60;58.80;;;;;;5079362;28;20602;-72
2021/09/06 02:44:49;;;;;;;7.83;6.97;;;23.60;58.80;;;;;;5080040;28;20229;-72
2021/09/06 02:47:23;;;;;;;7.73;7.03;;;23.60;58.80;;;;;;5105222;28;20218;-72
2021/09/06 02:49:51;;;;;;;7.93;7.23;;;23.60;58.80;;;;;;5098380;28;20189;-72
2021/09/06 02:52:23;;;;;;;7.47;6.77;;;23.60;58.80;;;;;;5104798;28;20657;-72
2021/09/06 02:54:52;;;;;;;7.97;7.07;;;23.60;58.80;;;;;;5091770;28;20224;-72
2021/09/06 02:57:22;;;;;;;7.63;6.90;;;23.60;58.80;;;;;;5106842;28;20208;-72
2021/09/06 02:59:53;;;;;;;7.57;6.97;;;23.60;58.90;;;;;;5076341;28;20189;-72
2021/09/06 03:02:26;;;;;;;8.10;7.30;;;23.50;58.80;;;;;;5060822;28;20192;-72
2021/09/06 03:04:59;;;;;;;7.50;6.80;;;23.50;58.80;;;;;;5081904;28;20301;-72
2021/09/06 03:07:31;;;;;;;7.47;6.77;;;23.50;58.80;;;;;;5105229;28;20614;-72
2021/09/06 03:09:59;;;;;;;8.17;7.37;;;23.60;58.90;;;;;;5096703;28;20193;-72
2021/09/06 03:12:27;;;;;;;7.90;7.10;;;23.50;58.80;;;;;;5087984;28;20193;-72
2021/09/06 03:14:58;;;;;;;8.07;7.37;;;23.50;58.80;;;;;;5103643;28;20281;-72
2021/09/06 03:17:31;;;;;;;7.73;7.03;;;23.50;58.80;;;;;;5109620;28;20224;-72
2021/09/06 03:20:05;;;;;;;8.43;7.63;;;23.50;58.80;;;;;;5109569;28;20212;-72
2021/09/06 03:22:37;;;;;;;7.97;7.17;;;23.50;58.80;;;;;;5109027;28;20185;-72
2021/09/06 03:25:09;;;;;;;7.67;6.93;;;23.50;58.80;;;;;;5091314;28;20215;-72
2021/09/06 03:27:39;;;;;;;7.57;6.80;;;23.50;58.80;;;;;;5092912;28;20196;-72
2021/09/06 03:30:09;;;;;;;6.90;6.20;;;23.50;58.80;;;;;;5106303;28;20231;-72
2021/09/06 03:32:38;;;;;;;7.20;6.60;;;23.50;58.80;;;;;;5079369;28;20807;-72
2021/09/06 03:35:11;;;;;;;7.13;6.47;;;23.50;58.80;;;;;;5070977;28;20338;-72
2021/09/06 03:37:43;;;;;;;6.97;6.37;;;23.50;58.80;;;;;;5093184;28;20235;-72
2021/09/06 03:40:12;;;;;;;7.80;7.10;;;23.50;58.80;;;;;;5107517;28;20202;-72
2021/09/06 03:42:42;;;;;;;7.60;6.90;;;23.50;58.80;;;;;;5105299;28;20192;-72
2021/09/06 03:45:14;;;;;;;7.60;6.90;;;23.50;58.80;;;;;;5086757;28;20237;-72
2021/09/06 03:47:44;;;;;;;7.00;6.40;;;23.50;58.80;;;;;;5097510;28;20212;-72
2021/09/06 03:50:21;;;;;;;6.77;6.17;;;23.50;58.80;;;;;;5100957;28;20269;-72
2021/09/06 03:52:49;;;;;;;7.73;7.00;;;23.40;58.70;;;;;;5099531;28;20639;-72
2021/09/06 03:55:19;;;;;;;6.93;6.23;;;23.40;58.80;;;;;;5105139;28;20291;-73
2021/09/06 03:57:47;;;;;;;7.70;6.70;;;23.50;58.80;;;;;;5081242;28;20199;-72
2021/09/06 04:00:17;;;;;;;7.10;6.40;;;23.40;58.80;;;;;;5084821;28;20219;-73
2021/09/06 04:02:46;;;;;;;6.73;6.03;;;23.40;58.80;;;;;;5090041;28;20199;-72
2021/09/06 04:05:17;;;;;;;7.53;6.83;;;23.40;58.80;;;;;;5078158;28;20686;-72
2021/09/06 04:07:47;;;;;;;6.90;6.30;;;23.40;58.80;;;;;;5076606;28;20208;-71
2021/09/06 04:10:19;;;;;;;7.40;6.70;;;23.40;58.80;;;;;;5098187;28;20211;-72
2021/09/06 04:12:52;;;;;;;7.90;6.40;;;23.40;58.80;;;;;;5105479;28;20284;-72
2021/09/06 04:15:22;;;;;;;7.30;6.60;;;23.40;58.80;;;;;;5091065;28;20251;-72
2021/09/06 04:17:53;;;;;;;7.83;6.83;;;23.40;58.80;;;;;;5106671;28;20298;-72
2021/09/06 04:20:23;;;;;;;7.20;6.60;;;23.40;58.80;;;;;;5105195;28;20235;-72
2021/09/06 04:22:53;;;;;;;7.63;6.80;;;23.30;58.70;;;;;;5103790;28;20193;-72
2021/09/06 04:25:23;;;;;;;6.80;6.17;;;23.40;58.80;;;;;;5094263;28;20216;-72
2021/09/06 04:27:54;;;;;;;7.10;6.50;;;23.30;58.70;;;;;;5098626;28;20208;-72
2021/09/06 04:30:26;;;;;;;6.77;6.03;;;23.40;58.80;;;;;;5097932;28;20231;-72
2021/09/06 04:32:58;;;;;;;7.07;6.37;;;23.40;58.70;;;;;;5105164;28;20235;-72
2021/09/06 04:35:32;;;;;;;7.00;6.40;;;23.30;58.70;;;;;;5089993;28;20218;-72
2021/09/06 04:38:02;;;;;;;7.07;6.40;;;23.30;58.70;;;;;;5080080;28;20197;-72
2021/09/06 04:40:31;;;;;;;6.40;5.80;;;23.30;58.60;;;;;;5102349;28;20212;-72
2021/09/06 04:42:59;;;;;;;7.10;6.40;;;23.30;58.70;;;;;;5071756;28;20692;-72
2021/09/06 04:45:38;;;;;;;7.00;6.30;;;23.30;58.60;;;;;;5108029;28;20227;-73
2021/09/06 04:48:46;;;;;;;7.10;6.03;;;23.30;58.70;;;;;;5094631;28;20724;-72
2021/09/06 04:51:17;;;;;;;6.43;5.83;;;23.30;58.70;;;;;;5104446;28;20214;-73
2021/09/06 04:53:47;;;;;;;6.57;5.90;;;23.30;58.60;;;;;;5073107;28;20215;-73
2021/09/06 04:56:19;;;;;;;6.93;6.23;;;23.30;58.60;;;;;;5108762;28;20268;-71
2021/09/06 04:58:47;;;;;;;6.97;6.03;;;23.30;58.60;;;;;;5099262;28;20200;-71
2021/09/06 05:01:18;;;;;;;6.83;6.13;;;23.30;58.60;;;;;;5085237;28;20253;-71
2021/09/06 05:03:58;;;;;;;7.50;6.70;;;23.30;58.60;;;;;;5089201;28;20200;-71
2021/09/06 05:06:29;;;;;;;6.43;5.83;;;23.30;58.60;;;;;;5107558;28;20217;-71
2021/09/06 05:08:58;;;;;;;6.77;6.10;;;23.30;58.60;;;;;;5103314;28;20204;-71
2021/09/06 05:11:32;;;;;;;7.10;6.40;;;23.20;58.60;;;;;;5107967;28;20196;-73
2021/09/06 05:14:01;;;;;;;7.10;6.40;;;23.20;58.60;;;;;;5101687;28;20212;-73
2021/09/06 05:16:33;;;;;;;7.50;6.33;;;23.20;58.50;;;;;;5086834;28;20261;-71
2021/09/06 05:19:01;;;;;;;7.47;6.73;;;23.20;58.50;;;;;;5104452;28;20200;-72
2021/09/06 05:21:33;;;;;;;6.40;5.80;;;23.20;58.50;;;;;;5112532;27;20204;-73
2021/09/06 05:24:06;;;;;;;6.43;5.83;;;23.20;58.50;;;;;;5108544;28;20211;-73
2021/09/06 05:26:36;;;;;;;7.50;6.70;;;23.20;58.40;;;;;;5082892;28;20604;-72
2021/09/06 05:29:09;;;;;;;7.93;6.93;;;23.20;58.60;;;;;;5105105;28;20298;-71
2021/09/06 05:31:37;;;;;;;11.10;6.80;;;23.20;58.90;;;;;;5107755;28;20196;-71
2021/09/06 05:34:04;;;;;;;9.87;6.80;;;23.20;59.00;;;;;;5110133;28;20200;-71
2021/09/06 05:36:33;;;;;;;8.00;6.67;;;23.20;59.00;;;;;;5100269;27;20582;-71
2021/09/06 05:39:05;;;;;;;13.10;7.10;;;23.20;59.00;;;;;;5101416;28;20208;-66
2021/09/06 05:41:35;;;;;;;8.60;7.40;;;23.20;59.10;;;;;;5097433;28;20197;-70
2021/09/06 05:44:05;;;;;;;14.73;8.47;;;23.20;59.00;;;;;;5091847;28;20211;-65
2021/09/06 05:46:33;;;;;;;16.37;12.70;;;23.20;58.80;;;;;;5109559;27;20300;-66
2021/09/06 05:49:04;;;;;;;16.00;13.83;;;23.20;54.40;;;;;;5105098;28;20201;-65
2021/09/06 05:51:34;;;;;;;14.63;13.13;;;23.10;53.30;;;;;;5090878;28;20782;-65
2021/09/06 05:54:01;;;;;;;16.23;13.60;;;23.10;53.70;;;;;;5089468;28;20204;-65
2021/09/06 05:56:29;;;;;;;16.00;13.67;;;23.00;54.10;;;;;;5086520;28;20299;-66
2021/09/06 05:59:00;;;;;;;18.37;14.63;;;23.00;55.20;;;;;;5093198;28;20211;-65
2021/09/06 06:01:34;;;;;;;16.97;13.20;;;23.00;55.50;;;;;;5106897;28;20208;-67
2021/09/06 06:04:05;;;;;;;18.23;14.03;;;23.00;55.90;;;;;;5074495;28;20266;-66
2021/09/06 06:06:37;;;;;;;17.87;14.60;;;23.00;56.00;;;;;;5091602;28;20197;-66
2021/09/06 06:09:07;;;;;;;15.70;14.10;;;22.90;55.10;;;;;;5087944;28;20196;-67
2021/09/06 06:11:38;;;;;;;20.40;14.13;;;22.90;54.70;;;;;;5109474;27;20266;-66
2021/09/06 06:14:09;;;;;;;53.93;22.47;;;22.90;55.60;;;;;;5103131;28;20201;-65
2021/09/06 06:16:40;;;;;;;32.83;18.20;;;22.90;57.70;;;;;;5088524;28;20731;-66
2021/09/06 06:19:13;;;;;;;23.20;16.60;;;22.90;57.20;;;;;;5107565;28;20234;-67
2021/09/06 06:21:43;;;;;;;19.80;15.07;;;22.90;56.20;;;;;;5097994;28;20235;-67
2021/09/06 06:24:14;;;;;;;20.13;15.37;;;22.90;55.40;;;;;;5100137;28;20546;-66
2021/09/06 06:26:44;;;;;;;24.27;13.53;;;22.90;55.20;;;;;;5107083;28;20200;-67
2021/09/06 06:29:16;;;;;;;18.90;13.47;;;22.90;56.30;;;;;;5092715;28;20725;-67
2021/09/06 06:31:48;;;;;;;19.07;14.23;;;22.90;56.80;;;;;;5098536;28;20617;-66
2021/09/06 06:34:18;;;;;;;16.63;13.13;;;22.90;56.90;;;;;;5092158;28;20626;-69
2021/09/06 06:36:49;;;;;;;18.97;13.87;;;22.90;57.00;;;;;;5087657;28;20532;-68
2021/09/06 06:39:22;;;;;;;15.50;13.80;;;22.90;58.00;;;;;;5091101;28;20239;-68
2021/09/06 06:41:50;;;;;;;17.90;13.67;;;23.00;59.00;;;;;;5091736;28;20260;-69
2021/09/06 06:44:22;;;;;;;16.07;13.03;;;23.00;59.40;;;;;;5105386;28;20897;-70
2021/09/06 06:46:52;;;;;;;15.23;13.63;;;23.00;59.60;;;;;;5086777;28;20208;-67
2021/09/06 06:49:24;;;;;;;17.23;14.40;;;23.00;59.40;;;;;;5105583;27;20200;-67
2021/09/06 06:51:54;;;;;;;19.20;13.73;;;23.10;59.10;;;;;;5099006;28;20213;-67
2021/09/06 06:54:23;;;;;;;17.17;13.33;;;23.10;58.80;;;;;;5086689;27;20208;-67
2021/09/06 06:56:56;;;;;;;17.83;13.80;;;23.10;58.50;;;;;;5078078;28;20247;-66
2021/09/06 06:59:34;;;;;;;19.63;14.00;;;23.10;58.10;;;;;;5104967;28;20200;-68
2021/09/06 07:02:09;;;;;;;15.80;14.20;;;23.10;58.00;;;;;;5094859;28;20196;-71
2021/09/06 07:04:45;;;;;;;17.93;14.50;;;23.20;56.90;;;;;;5103312;28;20208;-69
2021/09/06 07:07:15;;;;;;;17.70;14.47;;;23.20;57.40;;;;;;5069626;28;20208;-68
2021/09/06 07:09:46;;;;;;;16.33;14.63;;;23.20;57.60;;;;;;5104699;28;20231;-68
2021/09/06 07:12:17;;;;;;;17.57;14.70;;;23.20;57.60;;;;;;5100698;27;20223;-68
2021/09/06 07:14:49;;;;;;;19.87;16.10;;;23.20;57.70;;;;;;5084370;28;20728;-68
2021/09/06 07:17:24;;;;;;;20.80;16.07;;;23.20;57.70;;;;;;5097962;27;20226;-68
2021/09/06 07:19:57;;;;;;;17.57;15.63;;;23.20;57.80;;;;;;5080948;28;20774;-66
2021/09/06 07:22:27;;;;;;;19.43;16.23;;;23.20;57.80;;;;;;5101185;27;20189;-68
2021/09/06 07:25:03;;;;;;;18.03;16.13;;;23.20;57.90;;;;;;5106404;28;20621;-69
2021/09/06 07:27:36;;;;;;;17.43;15.27;;;23.20;57.90;;;;;;5110048;28;20261;-68
2021/09/06 07:30:12;;;;;;;17.60;15.63;;;23.30;58.00;;;;;;5099388;27;20678;-67
2021/09/06 07:32:44;;;;;;;18.90;15.63;;;23.30;57.90;;;;;;5097109;28;20216;-67
2021/09/06 07:35:16;;;;;;;18.27;15.00;;;23.30;57.80;;;;;;5079673;28;20200;-68
2021/09/06 07:37:50;;;;;;;17.17;15.03;;;23.30;57.80;;;;;;5101972;28;20220;-67
2021/09/06 07:40:25;;;;;;;18.77;16.77;;;23.40;57.80;;;;;;5082140;28;20199;-69
2021/09/06 07:42:56;;;;;;;18.23;16.30;;;23.30;57.80;;;;;;5087231;28;20624;-68
2021/09/06 07:45:28;;;;;;;18.13;16.17;;;23.40;57.80;;;;;;5099839;27;20304;-68
2021/09/06 07:47:56;;;;;;;18.63;16.67;;;23.40;57.90;;;;;;5106074;28;20197;-68
2021/09/06 07:50:28;;;;;;;26.27;16.40;;;23.40;57.80;;;;;;5092899;27;20219;-68
2021/09/06 07:52:59;;;;;;;19.37;17.17;;;23.40;57.80;;;;;;5104184;28;20227;-69
2021/09/06 07:55:29;;;;;;;18.53;16.33;;;23.40;57.80;;;;;;5078036;28;20197;-70
2021/09/06 07:58:00;;;;;;;20.47;15.53;;;23.40;57.90;;;;;;5102018;28;20205;-69
2021/09/06 08:00:32;;;;;;;17.27;15.47;;;23.40;57.80;;;;;;5092100;27;20274;-68
2021/09/06 08:03:08;;;;;;;23.07;16.93;;;23.40;57.80;;;;;;5105465;28;20204;-68
2021/09/06 08:05:41;;;;;;;18.13;16.23;;;23.50;57.90;;;;;;5105935;28;21022;-68
2021/09/06 08:08:14;;;;;;;17.37;15.53;;;23.60;58.10;;;;;;5103755;28;20689;-68
2021/09/06 08:10:48;;;;;;;18.60;16.57;;;23.60;58.10;;;;;;5100461;28;20212;-68
2021/09/06 08:13:21;;;;;;;18.43;16.53;;;23.50;58.10;;;;;;5099862;28;20200;-68
2021/09/06 08:15:58;;;;;;;17.50;15.70;;;23.60;58.20;;;;;;5106687;28;20219;-68
2021/09/06 08:18:31;;;;;;;17.27;15.37;;;23.60;58.10;;;;;;5105300;28;20199;-69
2021/09/06 08:21:21;;;;;;;19.03;15.80;;;23.70;58.20;;;;;;5105756;28;20530;-68
2021/09/06 08:23:53;;;;;;;20.27;16.43;;;23.60;58.20;;;;;;5107095;28;20276;-69
2021/09/06 08:26:26;;;;;;;19.70;16.07;;;23.70;58.20;;;;;;5100214;27;20200;-69
2021/09/06 08:28:56;;;;;;;18.37;15.97;;;23.70;58.10;;;;;;5067253;28;20223;-68
2021/09/06 08:31:30;;;;;;;18.23;16.03;;;23.80;58.20;;;;;;5101656;28;20561;-69
2021/09/06 08:34:02;;;;;;;16.73;15.10;;;23.80;58.10;;;;;;5083342;28;20585;-67
2021/09/06 08:36:32;;;;;;;18.00;15.13;;;23.80;58.10;;;;;;5103715;28;20538;-67
2021/09/06 08:39:00;;;;;;;16.63;14.87;;;23.80;58.10;;;;;;5105635;28;20289;-67
2021/09/06 08:41:31;;;;;;;18.27;15.47;;;23.80;57.90;;;;;;5088072;28;20261;-68
2021/09/06 08:44:03;;;;;;;17.13;14.77;;;23.90;58.00;;;;;;5091573;28;20197;-66
2021/09/06 08:46:36;;;;;;;18.27;14.60;;;23.90;58.10;;;;;;5102594;28;20239;-66
2021/09/06 08:49:12;;;;;;;19.80;15.80;;;23.90;57.90;;;;;;5108349;28;20653;-67
2021/09/06 08:51:43;;;;;;;19.23;15.13;;;23.90;57.90;;;;;;5106048;28;20244;-66
2021/09/06 08:54:17;;;;;;;17.53;15.27;;;23.90;57.90;;;;;;5077741;28;20203;-66
2021/09/06 08:56:50;;;;;;;15.77;14.17;;;23.90;57.90;;;;;;5092835;28;20204;-67
2021/09/06 08:59:20;;;;;;;17.40;15.30;;;24.00;57.90;;;;;;5113483;28;20761;-67
2021/09/06 09:01:51;;;;;;;16.23;13.93;;;24.00;57.90;;;;;;5094834;27;20670;-66
2021/09/06 09:04:30;;;;;;;17.10;14.53;;;24.00;57.80;;;;;;5108662;28;20595;-67
2021/09/06 09:07:04;;;;;;;20.83;16.83;;;24.10;57.80;;;;;;5080124;28;20204;-68
2021/09/06 09:09:37;;;;;;;19.80;14.77;;;24.10;58.20;;;;;;5116179;27;20672;-66
2021/09/06 09:12:25;;;;;;;15.40;13.80;;;24.10;58.20;;;;;;5105453;27;20585;-67
2021/09/06 09:14:57;;;;;;;14.60;13.13;;;24.10;57.80;;;;;;5091416;28;20265;-66
2021/09/06 09:17:29;;;;;;;16.70;14.73;;;24.10;57.70;;;;;;5094954;28;20223;-67
2021/09/06 09:20:08;;;;;;;19.00;15.80;;;24.20;57.80;;;;;;5092934;28;20736;-67
2021/09/06 09:22:44;;;;;;;19.33;15.47;;;24.20;57.90;;;;;;5112373;28;20204;-68
2021/09/06 09:25:28;;;;;;;16.50;14.77;;;24.20;57.80;;;;;;5111587;28;20299;-66
2021/09/06 09:27:58;;;;;;;18.43;14.80;;;24.20;57.80;;;;;;5077619;28;20292;-67
2021/09/06 09:30:36;;;;;;;15.80;14.20;;;24.20;58.10;;;;;;5087653;27;20277;-66
2021/09/06 09:33:17;;;;;;;17.50;14.00;;;24.30;57.70;;;;;;5082266;28;20215;-67
2021/09/06 09:35:53;;;;;;;15.97;14.13;;;24.30;57.60;;;;;;5109849;28;20271;-70
2021/09/06 09:38:40;;;;;;;17.17;15.03;;;24.30;57.60;;;;;;5105058;28;20673;-67
2021/09/06 09:41:16;;;;;;;15.63;14.07;;;24.40;57.60;;;;;;5108934;28;20641;-68
2021/09/06 09:43:44;;;;;;;15.93;12.57;;;24.40;57.50;;;;;;5094185;28;20621;-66
2021/09/06 09:46:13;;;;;;;18.50;14.40;;;24.40;57.50;;;;;;5097874;28;20235;-68
2021/09/06 09:48:43;;;;;;;15.40;13.30;;;24.40;57.10;;;;;;5106888;28;20208;-68
2021/09/06 09:51:14;;;;;;;13.33;11.77;;;24.50;57.20;;;;;;5107125;28;20196;-68
2021/09/06 09:53:45;;;;;;;14.73;13.10;;;24.50;57.20;;;;;;5105838;28;20192;-68
2021/09/06 09:56:16;;;;;;;13.50;12.10;;;24.50;56.70;;;;;;5068410;28;20189;-71
2021/09/06 09:58:51;;;;;;;15.07;12.23;;;24.50;56.40;;;;;;5090380;28;20630;-68
2021/09/06 10:01:20;;;;;;;13.87;12.47;;;24.50;56.60;;;;;;5102394;28;20196;-69
2021/09/06 10:03:54;;;;;;;13.57;12.00;;;24.60;56.60;;;;;;5089088;28;20696;-68
2021/09/06 10:06:25;;;;;;;13.57;12.07;;;24.60;56.70;;;;;;5083109;28;20297;-69
2021/09/06 10:08:55;;;;;;;14.63;12.03;;;24.60;56.90;;;;;;5085167;28;20892;-67
2021/09/06 10:11:39;;;;;;;14.73;13.13;;;24.60;57.60;;;;;;5091691;28;20185;-66
2021/09/06 10:14:26;;;;;;;14.60;12.10;;;24.60;58.50;;;;;;5120695;28;20200;-67
2021/09/06 10:17:09;;;;;;;13.27;11.47;;;24.60;60.30;;;;;;5124863;28;20240;-67
2021/09/06 10:19:53;;;;;;;15.73;13.73;;;24.60;60.90;;;;;;5107535;28;20199;-66
2021/09/06 10:22:28;;;;;;;15.13;13.53;;;24.50;59.60;;;;;;5089532;28;20528;-64
2021/09/06 10:25:06;;;;;;;17.57;14.80;;;24.50;60.20;;;;;;5099274;28;20189;-64
2021/09/06 10:28:02;;;;;;;15.53;13.63;;;24.40;60.30;;;;;;5093252;28;20204;-66
2021/09/06 10:30:48;;;;;;;17.17;12.93;;;24.50;60.90;;;;;;5083352;28;20208;-68
2021/09/06 10:33:38;;;;;;;19.07;14.23;;;24.50;60.00;;;;;;5105438;28;20301;-66
2021/09/06 10:36:23;;;;;;;17.73;14.90;;;24.60;59.60;;;;;;5091626;28;20261;-67
2021/09/06 10:39:08;;;;;;;17.23;15.00;;;24.60;58.40;;;;;;5104205;28;20193;-67
2021/09/06 10:41:54;;;;;;;17.47;15.40;;;24.70;57.70;;;;;;5093052;28;20204;-67
2021/09/06 10:44:37;;;;;;;18.47;14.27;;;24.70;56.70;;;;;;5096005;28;20185;-66
2021/09/06 10:47:11;;;;;;;18.43;16.07;;;24.70;56.50;;;;;;5089503;28;20900;-66
2021/09/06 10:49:44;;;;;;;19.13;16.97;;;24.70;56.20;;;;;;5075989;28;20238;-66
2021/09/06 10:52:15;;;;;;;18.40;15.13;;;24.80;56.00;;;;;;5073810;28;20188;-67
2021/09/06 10:54:46;;;;;;;17.47;13.30;;;24.80;56.50;;;;;;5105401;28;20246;-66
2021/09/06 10:57:17;;;;;;;15.23;13.00;;;24.80;57.50;;;;;;5109189;28;20269;-66
2021/09/06 10:59:48;;;;;;;15.47;12.37;;;24.90;57.90;;;;;;5106584;28;20193;-67
2021/09/06 11:02:20;;;;;;;16.70;13.37;;;24.90;57.30;;;;;;5104394;28;20200;-70
2021/09/06 11:04:56;;;;;;;15.13;13.10;;;24.90;57.10;;;;;;5089731;28;20219;-69
2021/09/06 11:07:26;;;;;;;16.03;13.27;;;24.90;56.10;;;;;;5098900;28;20204;-69
2021/09/06 11:10:08;;;;;;;14.17;12.67;;;25.00;55.60;;;;;;5107965;28;20204;-69
2021/09/06 11:13:04;;;;;;;14.60;13.10;;;25.00;55.10;;;;;;5099891;27;20223;-68
2021/09/06 11:15:34;;;;;;;13.57;12.17;;;25.00;55.20;;;;;;5092753;28;20207;-68
2021/09/06 11:18:08;;;;;;;16.73;13.20;;;25.00;55.70;;;;;;5103934;28;20224;-70
2021/09/06 11:20:43;;;;;;;18.53;14.47;;;25.10;55.70;;;;;;5080760;28;20205;-69
2021/09/06 11:23:43;;;;;;;14.47;13.00;;;25.10;55.60;;;;;;5091810;28;20200;-70
2021/09/06 11:26:33;;;;;;;14.30;12.30;;;25.20;55.50;;;;;;5106574;27;20192;-69
2021/09/06 11:29:03;;;;;;;14.00;12.57;;;25.20;56.10;;;;;;5102246;28;20208;-69
2021/09/06 11:31:33;;;;;;;19.03;11.70;;;25.20;55.80;;;;;;5101358;27;20214;-69
2021/09/06 11:34:09;;;;;;;14.80;13.30;;;25.20;56.70;;;;;;5100057;28;20215;-69
2021/09/06 11:36:58;;;;;;;18.27;15.80;;;25.30;55.10;;;;;;5105217;27;20208;-70
2021/09/06 11:39:38;;;;;;;18.07;16.17;;;25.30;53.80;;;;;;5100351;28;20222;-66
2021/09/06 11:42:10;;;;;;;18.67;16.73;;;25.40;52.90;;;;;;5099513;27;20200;-66
2021/09/06 11:44:41;;;;;;;19.43;16.03;;;25.40;52.40;;;;;;5099136;28;20634;-66
2021/09/06 11:47:11;;;;;;;17.70;14.63;;;25.40;55.10;;;;;;5073990;28;20709;-66
2021/09/06 11:49:50;;;;;;;16.20;14.50;;;25.30;53.70;;;;;;5087354;28;20216;-66
2021/09/06 11:52:42;;;;;;;18.17;14.63;;;25.30;52.80;;;;;;5087949;27;20216;-66
2021/09/06 11:55:19;;;;;;;17.40;13.40;;;25.40;50.60;;;;;;5098133;28;20622;-68
2021/09/06 11:57:48;;;;;;;15.30;12.77;;;25.30;50.90;;;;;;5108590;27;20220;-65
2021/09/06 12:00:19;;;;;;;14.87;12.60;;;25.40;51.70;;;;;;5097169;28;20197;-66
2021/09/06 12:02:56;;;;;;;13.37;11.20;;;25.40;51.90;;;;;;5096219;27;20673;-68
2021/09/06 12:05:49;;;;;;;12.87;11.47;;;25.50;51.80;;;;;;5103864;27;20184;-67
2021/09/06 12:08:19;;;;;;;16.50;11.10;;;25.50;51.60;;;;;;5083947;28;20205;-67
2021/09/06 12:10:49;;;;;;;14.40;11.07;;;25.50;51.50;;;;;;5104546;27;20202;-67
2021/09/06 12:13:29;;;;;;;12.23;10.03;;;25.60;51.10;;;;;;5104787;27;20272;-67
2021/09/06 12:16:10;;;;;;;14.17;10.73;;;25.60;51.80;;;;;;5106377;27;20202;-68
2021/09/06 12:18:46;;;;;;;13.00;11.63;;;25.60;50.10;;;;;;5090151;28;20212;-67
2021/09/06 12:21:21;;;;;;;13.57;11.33;;;25.70;49.30;;;;;;5083344;28;20253;-67
2021/09/06 12:24:08;;;;;;;12.63;11.33;;;25.70;49.90;;;;;;5082898;28;20221;-67
2021/09/06 12:26:49;;;;;;;12.53;10.63;;;25.80;49.50;;;;;;5108036;27;20184;-69
2021/09/06 12:29:33;;;;;;;12.13;10.93;;;25.80;49.00;;;;;;5076330;28;20219;-69
2021/09/06 12:32:19;;;;;;;11.87;10.47;;;25.80;48.80;;;;;;5095864;27;20247;-69
2021/09/06 12:34:55;;;;;;;10.90;9.90;;;25.80;49.20;;;;;;5107905;27;20654;-69
2021/09/06 12:37:25;;;;;;;13.43;11.10;;;25.90;51.00;;;;;;5089794;28;20247;-69
2021/09/06 12:39:57;;;;;;;13.47;9.97;;;25.90;50.90;;;;;;5104325;28;20533;-69
2021/09/06 12:42:39;;;;;;;12.17;9.03;;;25.90;50.40;;;;;;5102383;28;20544;-69
2021/09/06 12:45:11;;;;;;;10.47;9.37;;;25.90;50.50;;;;;;5100529;28;20237;-69
2021/09/06 12:47:40;;;;;;;9.10;8.20;;;26.00;51.10;;;;;;5099581;28;20546;-69
2021/09/06 12:50:26;;;;;;;9.77;7.83;;;26.00;50.70;;;;;;5093153;28;20207;-68
2021/09/06 12:52:57;;;;;;;8.83;7.80;;;26.00;48.90;;;;;;5100205;28;20659;-67
2021/09/06 12:55:45;;;;;;;10.13;7.90;;;26.10;46.90;;;;;;5103645;28;20201;-68
2021/09/06 12:58:14;;;;;;;8.27;7.47;;;26.10;47.00;;;;;;5076266;28;20233;-69
2021/09/06 13:00:46;;;;;;;8.57;7.47;;;26.10;48.30;;;;;;5100186;28;20203;-69
2021/09/06 13:03:16;;;;;;;8.70;7.37;;;26.10;48.70;;;;;;5102590;28;20274;-66
2021/09/06 13:05:47;;;;;;;7.67;6.57;;;26.10;49.20;;;;;;5107960;28;20528;-66